• Join FlightAware (Why Join?)
  • Login
  • US Flag 
02:19AM EDT


 

Airport Tracker/Info


-or-


 

Live Flight TrackerFlight Track Log ✈ SKW4717 ✈ 09-May-2013 ✈ KSLC - KSMF

Flight Track Log - Related Links

Times and Time Zones

All times are in EDT time to prevent confusion due to time zone crossing. See the SKW4717 flight status page for this flight to view local times or setup timezone preferences in your user account.

Time Position Orientation Groundspeed Altitude Reporting Facility
EDT Latitude Longitude Course Direction KTS MPH feet Rate Location/Type
07:13PM 40.8153 -112.0019 258° West 181 208 5,100  Level Salt Lake Center
07:14PM 40.8517 -112.0775 303° West 247 284 6,800 1,500 Climbing Salt Lake Center
07:15PM 40.8611 -112.1133 289° West 258 297 7,500 2,160 Climbing Salt Lake Center
07:15PM 40.8814 -112.1750 294° West 289 333 9,000 2,220 Climbing Salt Lake Center
07:16PM 40.8553 -112.3877 288° West  Level FlightAware Approximate
07:16PM 40.8892 -112.2153 284° West 291 335 9,800  Level Salt Lake Center
07:17PM 40.8526 -112.5456 261° West  Level FlightAware Approximate
07:17PM 40.8803 -112.3283 264° West 305 351 11,900  Level Salt Lake Center
07:18PM 40.8407 -112.7057 258° West  Level FlightAware Approximate
07:18PM 40.8706 -112.4489 264° West 327 376 13,400  Level Salt Lake Center
07:19PM 40.8622 -112.5772 265° West 347 399 15,500 1,920 Climbing Salt Lake Center
07:20PM 40.8500 -112.7333 264° West 356 410 17,400 1,620 Climbing Salt Lake Center
07:21PM 40.8406 -112.8681 265° West 368 423 18,900 1,380 Climbing Salt Lake Center
07:22PM 40.8425 -113.0067 271° West 378 435 20,300 1,200 Climbing Salt Lake Center
07:23PM 40.8425 -113.1472 270° West 386 444 21,400 1,380 Climbing Salt Lake Center
07:24PM 40.8422 -113.2867 270° West 380 437 23,200 1,440 Climbing Salt Lake Center
07:25PM 40.8433 -113.4253 271° West 378 435 24,400 1,080 Climbing Salt Lake Center
07:26PM 40.8431 -113.5658 270° West 382 440 25,500 960 Climbing Salt Lake Center
07:27PM 40.8422 -113.7406 270° West 394 453 26,400 780 Climbing Salt Lake Center
07:28PM 40.8403 -113.8878 269° West 400 460 27,200 720 Climbing Salt Lake Center
07:29PM 40.8394 -114.0381 270° West 408 470 28,000 720 Climbing Salt Lake Center
07:30PM 40.8389 -114.1894 270° West 412 474 28,800 780 Climbing Salt Lake Center
07:31PM 40.8381 -114.3428 270° West 416 479 29,600 540 Climbing Salt Lake Center
07:32PM 40.8356 -114.5133 269° West 418 481 30,000 180 Climbing Salt Lake Center
07:33PM 40.8336 -114.6658 269° West 428 493 30,000  Level Salt Lake Center
07:34PM 40.8244 -114.8483 266° West 443 510 30,000  Level Salt Lake Center
07:35PM 40.8050 -115.0019 261° West 445 512 30,000  Level Salt Lake Center
07:36PM 40.7833 -115.1764 261° West 435 501 30,000  Level Salt Lake Center
07:37PM 40.7664 -115.3236 261° West 427 491 30,000  Level Salt Lake Center
07:38PM 40.7503 -115.4700 262° West 423 487 30,000  Level Salt Lake Center
07:39PM 40.7292 -115.6417 261° West 424 488 30,000  Level Salt Lake Center
07:40PM 40.7108 -115.7892 261° West 427 491 30,000  Level Salt Lake Center
07:41PM 40.6900 -115.9617 261° West 427 491 30,000  Level Salt Lake Center
07:42PM 40.6722 -116.1114 261° West 430 495 30,000  Level Salt Lake Center
07:43PM 40.6725 -116.2858 270° West 431 496 30,000  Level Salt Lake Center
07:44PM 40.7003 -116.4308 284° West 428 493 30,000  Level Salt Lake Center
07:46PM 40.7278 -116.6003 282° West 427 491 30,000  Level Salt Lake Center
07:47PM 40.7536 -116.7453 283° West 427 491 30,000  Level Salt Lake Center
07:48PM 40.7839 -116.9156 283° West 429 494 30,000  Level Salt Lake Center
07:49PM 40.8106 -117.0608 284° West 429 494 30,000  Level Salt Lake Center
07:50PM 40.8411 -117.2308 283° West 430 495 30,000  Level Salt Lake Center
07:51PM 40.8447 -117.3811 272° West 430 495 30,000  Level Salt Lake Center
07:52PM 40.7781 -117.5300 239° Southwest 430 495 30,000  Level Salt Lake Center
07:53PM 40.7061 -117.6486 231° Southwest 432 497 30,000  Level Salt Lake Center
07:54PM 40.6378 -117.7694 233° Southwest 432 497 30,000  Level Salt Lake Center
07:55PM 40.5586 -117.9111 234° Southwest 431 496 30,000  Level Salt Lake Center
07:56PM 40.4878 -118.0317 232° Southwest 434 499 30,000  Level Salt Lake Center
07:57PM 40.4086 -118.1736 234° Southwest 433 498 30,000  Level Salt Lake Center
07:58PM 40.3456 -118.2864 234° Southwest 434 499 30,000  Level Oakland Center
07:59PM 40.2739 -118.4131 233° Southwest 434 499 30,000  Level Oakland Center
08:00PM 40.2006 -118.5389 233° Southwest 437 503 30,000  Level Oakland Center
08:01PM 40.1286 -118.6642 233° Southwest 434 499 30,000  Level Oakland Center
08:02PM 40.0564 -118.7925 234° Southwest 437 503 30,000  Level Oakland Center
08:03PM 39.9672 -118.9408 232° Southwest 436 502 30,000  Level Oakland Center
08:04PM 39.8947 -119.0667 233° Southwest 437 503 30,000 -480 Level Oakland Center
08:05PM 39.8206 -119.1931 233° Southwest 441 507 29,100 -1,320 Descending Oakland Center
08:06PM 39.7600 -119.3333 241° Southwest 450 518 27,300 -1,800 Descending Oakland Center
08:07PM 39.7047 -119.4711 242° Southwest 437 503 25,500 -1,620 Descending Oakland Center
08:08PM 39.6494 -119.6050 242° Southwest 427 491 24,000 -780 Descending Oakland Center
08:09PM 39.6064 -119.7397 248° West 410 472 24,000  Level Oakland Center
08:10PM 39.5592 -119.9008 249° West 402 463 24,000 -360 Level Oakland Center
08:11PM 39.5119 -120.0450 247° West 434 499 23,300 -720 Descending Oakland Center
08:12PM 39.4681 -120.1697 246° West 425 489 22,600 -720 Descending Oakland Center
08:13PM 39.4211 -120.3114 247° West 428 493 21,900 -780 Descending Oakland Center
08:14PM 39.3614 -120.4428 240° Southwest 429 494 21,100 -900 Descending Oakland Center
08:15PM 39.2853 -120.5931 237° Southwest 419 482 20,100 -900 Descending Oakland Center
08:16PM 39.2233 -120.7175 237° Southwest 415 478 19,300 -840 Descending Oakland Center
08:17PM 39.1633 -120.8397 238° Southwest 409 471 18,500 -840 Descending Oakland Center
08:18PM 39.1039 -120.9617 238° Southwest 405 466 17,700 -900 Descending Oakland Center
08:19PM 39.0442 -121.0803 237° Southwest 400 460 16,700 -1,440 Descending Oakland Center
08:20PM 38.9903 -121.1892 238° Southwest 375 432 14,800 -1,860 Descending Oakland Center
08:21PM 38.9600 -121.2969 250° West 355 409 12,900 -1,860 Descending Oakland Center
08:22PM 39.0131 -121.3817 309° West 311 358 11,000 -2,040 Descending Oakland Center
08:23PM 39.0500 -121.4667 299° West 315 362 9,100 -2,040 Descending Northern Cal TRACON
08:24PM 39.0000 -121.5500 232° Southwest 272 313 7,200 -1,740 Descending Northern Cal TRACON
08:25PM 38.9333 -121.5667 191° South 225 259 5,700 -1,800 Descending Northern Cal TRACON
08:26PM 38.8833 -121.5833 195° South 201 231 3,700 -1,620 Descending Northern Cal TRACON
08:27PM 38.8333 -121.5833 180° South 182 209 2,500 -1,200 Descending Northern Cal TRACON